Time;durP1;ratioP1;P1;durP2;ratioP2;P2;SDS_P1;SDS_P2;PMS_P1;PMS_P2;Temp;Humidity;BMP_temperature;BMP_pressure;BME280_temperature;BME280_humidity;BME280_pressure;Samples;Min_cycle;Max_cycle;Signal;HPM_P1;HPM_P2
2023/11/11 05:51:55;;;;;;;23.55;13.77;;;;;;;;;;4952679;29;20441;-74
2023/11/11 05:54:21;;;;;;;19.90;15.23;;;;;;;;;;4919164;29;20035;-74
2023/11/11 05:56:47;;;;;;;22.63;15.32;;;;;;;;;;4952862;29;20027;-74
2023/11/11 05:59:13;;;;;;;23.85;15.25;;;;;;;;;;4953231;29;20596;-73
2023/11/11 06:01:48;;;;;;;23.35;19.55;;;;;;;;;;4951967;28;20533;-73
2023/11/11 06:04:14;;;;;;;21.92;16.33;;;;;;;;;;4948079;29;20146;-74
2023/11/11 06:06:41;;;;;;;14.45;11.82;;;;;;;;;;4952230;29;20035;-75
2023/11/11 06:09:11;;;;;;;19.85;15.18;;;;;;;;;;4951813;29;20537;-75
2023/11/11 06:11:45;;;;;;;19.90;16.77;;;;;;;;;;4946448;29;20130;-74
2023/11/11 06:14:12;;;;;;;16.45;12.90;;;;;;;;;;4948575;29;20038;-74
2023/11/11 06:16:38;;;;;;;19.73;16.35;;;;;;;;;;4927767;29;20031;-73
2023/11/11 06:19:04;;;;;;;17.80;15.88;;;;;;;;;;4952253;29;20058;-73
2023/11/11 06:21:30;;;;;;;17.98;15.20;;;;;;;;;;4953302;29;20521;-72
2023/11/11 06:23:56;;;;;;;16.60;12.52;;;;;;;;;;4948480;29;20035;-72
2023/11/11 06:26:22;;;;;;;22.95;15.73;;;;;;;;;;4949880;29;20047;-72
2023/11/11 06:28:51;;;;;;;13.18;11.85;;;;;;;;;;4935264;29;20126;-74
2023/11/11 06:31:18;;;;;;;19.13;15.43;;;;;;;;;;4948345;29;20031;-74
2023/11/11 06:33:44;;;;;;;19.95;15.35;;;;;;;;;;4948449;29;20062;-73
2023/11/11 06:36:10;;;;;;;21.33;19.02;;;;;;;;;;4952767;29;20037;-74
2023/11/11 06:38:37;;;;;;;19.83;15.48;;;;;;;;;;4948223;29;20049;-73
2023/11/11 06:41:03;;;;;;;20.25;18.05;;;;;;;;;;4933157;29;20168;-75
2023/11/11 06:43:29;;;;;;;20.20;15.95;;;;;;;;;;4931616;29;20090;-73
2023/11/11 06:45:57;;;;;;;17.67;14.57;;;;;;;;;;4948403;29;20032;-73
2023/11/11 06:48:23;;;;;;;15.98;13.90;;;;;;;;;;4939739;29;20035;-73
2023/11/11 06:50:49;;;;;;;20.77;15.60;;;;;;;;;;4944854;29;20596;-74
2023/11/11 06:53:15;;;;;;;12.98;11.73;;;;;;;;;;4945274;29;20047;-72
2023/11/11 06:55:41;;;;;;;15.70;10.25;;;;;;;;;;4949161;29;20180;-73
2023/11/11 06:58:07;;;;;;;19.60;14.93;;;;;;;;;;4949726;29;20035;-73
2023/11/11 07:00:33;;;;;;;16.15;14.38;;;;;;;;;;4945026;29;20473;-73
2023/11/11 07:02:59;;;;;;;21.38;16.60;;;;;;;;;;4927635;29;20118;-73
2023/11/11 07:05:25;;;;;;;16.70;14.98;;;;;;;;;;4946563;29;20031;-73
2023/11/11 07:07:51;;;;;;;19.70;14.25;;;;;;;;;;4943377;29;20059;-73
2023/11/11 07:10:21;;;;;;;18.65;13.63;;;;;;;;;;4946361;29;20050;-72
2023/11/11 07:12:47;;;;;;;18.65;15.23;;;;;;;;;;4944341;29;20047;-73
2023/11/11 07:15:15;;;;;;;22.63;14.80;;;;;;;;;;4941178;28;20122;-73
2023/11/11 07:17:41;;;;;;;14.32;12.82;;;;;;;;;;4938817;29;20118;-73
2023/11/11 07:20:18;;;;;;;18.05;15.43;;;;;;;;;;4922033;29;20070;-74
2023/11/11 07:22:45;;;;;;;14.93;11.73;;;;;;;;;;4944911;29;20490;-74
2023/11/11 07:25:11;;;;;;;18.77;14.52;;;;;;;;;;4945153;29;20035;-74
2023/11/11 07:27:37;;;;;;;13.25;9.85;;;;;;;;;;4946297;29;20035;-75
2023/11/11 07:30:05;;;;;;;18.17;14.32;;;;;;;;;;4945019;29;20700;-75
2023/11/11 07:32:31;;;;;;;17.17;14.18;;;;;;;;;;4943699;29;20051;-74
2023/11/11 07:34:58;;;;;;;14.95;11.57;;;;;;;;;;4928388;29;20480;-74
2023/11/11 07:37:27;;;;;;;14.40;12.70;;;;;;;;;;4944604;29;20040;-75
2023/11/11 07:39:53;;;;;;;16.05;12.65;;;;;;;;;;4943595;29;20038;-74
2023/11/11 07:42:19;;;;;;;16.80;13.93;;;;;;;;;;4939345;29;20078;-74
2023/11/11 07:44:45;;;;;;;15.95;14.15;;;;;;;;;;4922325;29;20404;-74
2023/11/11 07:47:11;;;;;;;16.15;13.52;;;;;;;;;;4939032;29;20042;-73
2023/11/11 07:49:38;;;;;;;18.65;14.77;;;;;;;;;;4937436;29;20031;-74
2023/11/11 07:52:04;;;;;;;21.00;15.10;;;;;;;;;;4945460;29;20043;-74
2023/11/11 07:54:33;;;;;;;18.20;14.98;;;;;;;;;;4944204;29;20034;-74
2023/11/11 07:56:59;;;;;;;17.67;13.75;;;;;;;;;;4927569;29;20494;-73
2023/11/11 07:59:25;;;;;;;15.32;13.68;;;;;;;;;;4943310;29;20023;-73
2023/11/11 08:01:53;;;;;;;16.95;14.40;;;;;;;;;;4942844;29;20048;-74
2023/11/11 08:04:19;;;;;;;17.08;13.68;;;;;;;;;;4944385;29;20027;-74
2023/11/11 08:06:45;;;;;;;17.35;12.85;;;;;;;;;;4959385;29;20035;-74
2023/11/11 08:09:11;;;;;;;19.52;13.75;;;;;;;;;;4961205;29;20058;-74
2023/11/11 08:11:38;;;;;;;13.65;12.32;;;;;;;;;;4938455;29;20032;-74
2023/11/11 08:14:05;;;;;;;17.55;14.60;;;;;;;;;;4923014;29;20040;-73
2023/11/11 08:16:34;;;;;;;21.27;15.02;;;;;;;;;;4942320;29;20054;-74
2023/11/11 08:19:00;;;;;;;17.83;14.82;;;;;;;;;;4938105;29;20094;-73
2023/11/11 08:21:31;;;;;;;19.63;13.80;;;;;;;;;;4921345;29;20094;-74
2023/11/11 08:24:00;;;;;;;20.88;14.70;;;;;;;;;;4938108;29;20525;-74
2023/11/11 08:26:26;;;;;;;14.20;12.30;;;;;;;;;;4936542;29;20052;-75
2023/11/11 08:28:52;;;;;;;16.58;12.15;;;;;;;;;;4941979;29;20499;-75
2023/11/11 08:31:18;;;;;;;17.23;15.27;;;;;;;;;;4909193;29;20043;-75
2023/11/11 08:33:44;;;;;;;21.33;13.10;;;;;;;;;;4938621;29;20063;-74
2023/11/11 08:36:10;;;;;;;16.02;13.65;;;;;;;;;;4944031;29;20082;-74
2023/11/11 08:38:36;;;;;;;16.65;14.07;;;;;;;;;;4940771;29;20039;-74
2023/11/11 08:41:02;;;;;;;15.63;14.07;;;;;;;;;;4923859;29;20115;-76
2023/11/11 08:43:29;;;;;;;14.50;12.93;;;;;;;;;;4942994;29;20421;-74
2023/11/11 08:45:57;;;;;;;15.38;13.18;;;;;;;;;;4942790;29;20050;-74
2023/11/11 08:48:23;;;;;;;14.10;11.82;;;;;;;;;;4944196;29;20039;-73
2023/11/11 08:50:50;;;;;;;16.45;13.30;;;;;;;;;;4942922;29;20051;-74
2023/11/11 08:53:16;;;;;;;14.00;12.38;;;;;;;;;;4945971;29;20051;-74
2023/11/11 08:55:41;;;;;;;20.23;14.90;;;;;;;;;;4941779;29;20061;-74
2023/11/11 08:58:08;;;;;;;17.95;14.02;;;;;;;;;;4944025;29;20090;-74
2023/11/11 09:00:34;;;;;;;16.02;11.27;;;;;;;;;;4942656;29;20433;-73
2023/11/11 09:03:01;;;;;;;18.35;13.98;;;;;;;;;;4941829;29;20035;-74
2023/11/11 09:05:27;;;;;;;16.05;12.18;;;;;;;;;;4942935;29;20057;-74
2023/11/11 09:07:53;;;;;;;15.65;13.20;;;;;;;;;;4945005;29;20093;-74
2023/11/11 09:10:20;;;;;;;19.23;11.65;;;;;;;;;;4940090;29;20031;-72
2023/11/11 09:12:48;;;;;;;14.05;10.35;;;;;;;;;;4924980;29;20047;-73
2023/11/11 09:15:16;;;;;;;18.20;15.52;;;;;;;;;;4932418;29;20046;-73
2023/11/11 09:17:43;;;;;;;13.52;12.23;;;;;;;;;;4937193;29;20410;-73
2023/11/11 09:20:10;;;;;;;13.35;11.38;;;;;;;;;;4940389;29;20028;-73
2023/11/11 09:22:36;;;;;;;13.77;12.35;;;;;;;;;;4940721;29;20389;-73
2023/11/11 09:25:03;;;;;;;18.33;12.93;;;;;;;;;;4925277;29;20038;-75
2023/11/11 09:27:30;;;;;;;22.38;11.50;;;;;;;;;;4944601;29;20409;-74
2023/11/11 09:29:57;;;;;;;15.75;12.65;;;;;;;;;;4943006;29;20023;-74
2023/11/11 09:32:23;;;;;;;17.60;12.38;;;;;;;;;;4928780;29;20058;-74
2023/11/11 09:34:50;;;;;;;13.10;11.02;;;;;;;;;;4942490;29;20032;-74
2023/11/11 09:37:16;;;;;;;15.65;14.10;;;;;;;;;;4943635;29;20134;-74
2023/11/11 09:39:41;;;;;;;14.07;12.52;;;;;;;;;;4943956;29;20122;-73
2023/11/11 09:42:07;;;;;;;17.15;13.05;;;;;;;;;;4935540;29;20089;-73
2023/11/11 09:44:33;;;;;;;17.83;11.88;;;;;;;;;;4942262;28;20085;-73
2023/11/11 09:46:59;;;;;;;18.58;13.40;;;;;;;;;;4930606;29;20039;-73
2023/11/11 09:49:27;;;;;;;17.95;12.20;;;;;;;;;;4945454;29;20372;-74
2023/11/11 09:51:53;;;;;;;13.50;10.30;;;;;;;;;;4944601;29;20059;-73
2023/11/11 09:54:20;;;;;;;14.23;12.48;;;;;;;;;;4928618;29;20030;-72
2023/11/11 09:56:46;;;;;;;12.82;8.05;;;;;;;;;;4949647;29;20504;-74
2023/11/11 09:59:12;;;;;;;18.48;9.38;;;;;;;;;;4951237;29;20027;-72
2023/11/11 10:01:41;;;;;;;12.15;9.60;;;;;;;;;;4949378;29;20174;-73
2023/11/11 10:04:07;;;;;;;13.32;11.95;;;;;;;;;;4930861;29;20031;-73
2023/11/11 10:06:33;;;;;;;14.48;12.13;;;;;;;;;;4956576;29;20035;-74
2023/11/11 10:09:00;;;;;;;15.73;11.95;;;;;;;;;;4946264;29;20046;-73
2023/11/11 10:11:26;;;;;;;13.98;11.43;;;;;;;;;;4930839;29;20529;-73
2023/11/11 10:13:54;;;;;;;10.32;8.43;;;;;;;;;;4948477;28;20066;-72
2023/11/11 10:16:25;;;;;;;12.77;10.93;;;;;;;;;;4947450;28;20042;-72
2023/11/11 10:18:51;;;;;;;8.80;8.02;;;;;;;;;;4928522;29;20039;-73
2023/11/11 10:21:20;;;;;;;18.50;13.00;;;;;;;;;;4948828;28;20028;-73
2023/11/11 10:23:49;;;;;;;11.55;10.35;;;;;;;;;;4947253;29;20043;-74
2023/11/11 10:26:16;;;;;;;11.70;9.05;;;;;;;;;;4948934;28;20034;-74
2023/11/11 10:28:51;;;;;;;14.38;11.38;;;;;;;;;;4947342;29;20130;-74
2023/11/11 10:31:23;;;;;;;13.20;11.77;;;;;;;;;;4947010;29;20030;-74
2023/11/11 10:33:50;;;;;;;14.32;11.32;;;;;;;;;;4948088;28;20066;-74
2023/11/11 10:36:17;;;;;;;14.55;12.38;;;;;;;;;;4940600;29;20030;-74
2023/11/11 10:38:43;;;;;;;11.18;9.88;;;;;;;;;;4933275;29;20042;-74
2023/11/11 10:41:10;;;;;;;18.08;11.77;;;;;;;;;;4926892;29;20035;-74
2023/11/11 10:43:36;;;;;;;13.18;10.85;;;;;;;;;;4946048;28;20035;-73
2023/11/11 10:46:02;;;;;;;12.82;10.55;;;;;;;;;;4946994;28;20094;-73
2023/11/11 10:48:29;;;;;;;13.38;11.43;;;;;;;;;;4941021;28;20044;-72
2023/11/11 10:50:55;;;;;;;14.50;11.65;;;;;;;;;;4928960;29;20141;-74
2023/11/11 10:53:21;;;;;;;11.95;10.77;;;;;;;;;;4934820;29;20499;-73
2023/11/11 10:55:50;;;;;;;14.63;11.65;;;;;;;;;;4932889;29;20389;-73
2023/11/11 10:58:19;;;;;;;13.48;11.57;;;;;;;;;;4935903;29;20109;-75
2023/11/11 11:00:46;;;;;;;10.32;9.32;;;;;;;;;;4955102;29;20023;-73
2023/11/11 11:03:13;;;;;;;13.68;11.40;;;;;;;;;;4961912;29;20034;-74
2023/11/11 11:05:42;;;;;;;14.43;12.18;;;;;;;;;;4944715;29;20038;-74
2023/11/11 11:08:19;;;;;;;17.88;12.60;;;;;;;;;;4931859;29;20110;-73
2023/11/11 11:10:51;;;;;;;13.02;10.55;;;;;;;;;;4947506;29;20043;-73
2023/11/11 11:13:18;;;;;;;12.20;10.90;;;;;;;;;;4943228;28;20050;-73
2023/11/11 11:15:44;;;;;;;9.75;8.70;;;;;;;;;;4948883;28;20038;-73
2023/11/11 11:18:10;;;;;;;12.52;11.02;;;;;;;;;;4944278;29;20118;-72
2023/11/11 11:20:37;;;;;;;17.48;12.32;;;;;;;;;;4925264;29;20122;-73
2023/11/11 11:23:04;;;;;;;12.80;11.50;;;;;;;;;;4942717;29;20035;-73
2023/11/11 11:25:33;;;;;;;10.63;9.60;;;;;;;;;;4947039;29;20047;-73
2023/11/11 11:28:12;;;;;;;16.85;12.40;;;;;;;;;;4932950;29;20524;-72
2023/11/11 11:30:42;;;;;;;16.25;13.63;;;;;;;;;;4941013;28;20039;-71
2023/11/11 11:33:08;;;;;;;14.35;12.07;;;;;;;;;;4941902;29;20139;-72
2023/11/11 11:35:38;;;;;;;16.08;12.50;;;;;;;;;;4931451;28;20028;-72
2023/11/11 11:38:06;;;;;;;13.02;10.65;;;;;;;;;;4949406;29;20027;-73
2023/11/11 11:40:34;;;;;;;16.40;11.27;;;;;;;;;;4952226;29;20042;-75
2023/11/11 11:43:01;;;;;;;13.65;10.18;;;;;;;;;;4942660;29;20466;-73
2023/11/11 11:45:30;;;;;;;12.13;10.85;;;;;;;;;;4944115;29;20063;-73
2023/11/11 11:47:56;;;;;;;14.88;10.18;;;;;;;;;;4952732;29;20930;-73
2023/11/11 11:50:23;;;;;;;16.10;12.55;;;;;;;;;;4952199;29;20062;-72
2023/11/11 11:52:49;;;;;;;13.50;11.90;;;;;;;;;;4950795;29;20046;-72
2023/11/11 11:55:16;;;;;;;12.15;10.85;;;;;;;;;;4936990;29;20046;-72
2023/11/11 11:57:51;;;;;;;11.05;9.95;;;;;;;;;;4937345;29;20043;-72
2023/11/11 12:00:19;;;;;;;10.15;9.25;;;;;;;;;;4943055;28;20042;-75
2023/11/11 12:02:45;;;;;;;15.57;11.98;;;;;;;;;;4931871;29;20487;-75
2023/11/11 12:05:12;;;;;;;14.30;12.73;;;;;;;;;;4943326;29;20165;-74
2023/11/11 12:07:38;;;;;;;13.48;12.07;;;;;;;;;;4943308;29;20114;-73
2023/11/11 12:10:06;;;;;;;13.10;11.77;;;;;;;;;;4945834;29;20028;-74
2023/11/11 12:12:32;;;;;;;18.75;12.85;;;;;;;;;;4929754;29;20105;-72
2023/11/11 12:14:58;;;;;;;11.63;10.13;;;;;;;;;;4925293;29;20441;-73
2023/11/11 12:17:25;;;;;;;11.82;10.57;;;;;;;;;;4933057;29;20035;-73
2023/11/11 12:19:54;;;;;;;13.88;11.57;;;;;;;;;;4944470;29;20524;-73
2023/11/11 12:22:20;;;;;;;16.42;11.65;;;;;;;;;;4936422;29;20476;-74
2023/11/11 12:24:46;;;;;;;18.20;12.30;;;;;;;;;;4939660;29;20031;-73
2023/11/11 12:27:12;;;;;;;15.23;13.10;;;;;;;;;;4948960;29;20157;-73
2023/11/11 12:29:39;;;;;;;14.40;12.23;;;;;;;;;;4947638;29;20027;-72
2023/11/11 12:32:05;;;;;;;11.32;10.02;;;;;;;;;;4925108;29;20498;-72
2023/11/11 12:34:31;;;;;;;14.82;11.40;;;;;;;;;;4934264;29;20023;-72
2023/11/11 12:36:57;;;;;;;14.45;10.38;;;;;;;;;;4934002;29;20402;-73
2023/11/11 12:39:23;;;;;;;17.48;11.93;;;;;;;;;;4933671;29;20032;-73
2023/11/11 12:41:51;;;;;;;19.67;12.45;;;;;;;;;;4925881;29;20043;-72
2023/11/11 12:44:18;;;;;;;16.13;13.25;;;;;;;;;;4940333;29;20066;-72
2023/11/11 12:46:45;;;;;;;13.13;11.73;;;;;;;;;;4938303;29;20039;-73
2023/11/11 12:49:11;;;;;;;13.50;12.20;;;;;;;;;;4939239;29;20027;-72
2023/11/11 12:51:37;;;;;;;15.43;11.55;;;;;;;;;;4947184;28;20106;-72
2023/11/11 12:54:04;;;;;;;15.90;11.85;;;;;;;;;;4941088;29;20465;-72
2023/11/11 12:56:31;;;;;;;22.23;12.98;;;;;;;;;;4941458;29;20032;-72
2023/11/11 12:59:15;;;;;;;20.10;12.90;;;;;;;;;;4942924;29;20061;-72
2023/11/11 13:01:42;;;;;;;21.65;12.82;;;;;;;;;;4941607;29;20043;-72
2023/11/11 13:04:09;;;;;;;17.63;13.43;;;;;;;;;;4941745;29;20042;-71
2023/11/11 13:06:34;;;;;;;14.77;12.18;;;;;;;;;;4945741;28;20779;-72
2023/11/11 13:09:02;;;;;;;28.17;12.75;;;;;;;;;;4942273;29;20059;-73
2023/11/11 13:11:28;;;;;;;21.33;13.73;;;;;;;;;;4947410;28;20051;-71
2023/11/11 13:13:54;;;;;;;14.85;12.20;;;;;;;;;;4948092;29;20038;-72
2023/11/11 13:16:20;;;;;;;16.10;12.82;;;;;;;;;;4940303;29;20036;-73
2023/11/11 13:18:46;;;;;;;12.27;11.00;;;;;;;;;;4946471;29;20060;-73
2023/11/11 13:21:12;;;;;;;18.02;11.32;;;;;;;;;;4952238;29;20387;-74
2023/11/11 13:23:38;;;;;;;16.75;12.25;;;;;;;;;;4934396;29;20125;-73
2023/11/11 13:26:05;;;;;;;15.50;12.82;;;;;;;;;;4950735;29;20050;-73
2023/11/11 13:28:31;;;;;;;14.55;11.45;;;;;;;;;;4942582;29;20486;-73
2023/11/11 13:30:58;;;;;;;13.98;12.52;;;;;;;;;;4946791;29;20135;-71
2023/11/11 13:33:24;;;;;;;13.88;10.63;;;;;;;;;;4948826;29;20121;-73
2023/11/11 13:35:53;;;;;;;11.98;10.00;;;;;;;;;;4948380;29;20498;-72
2023/11/11 13:38:22;;;;;;;13.07;10.90;;;;;;;;;;4950259;29;20058;-72
2023/11/11 13:40:52;;;;;;;20.15;12.35;;;;;;;;;;4950075;29;20074;-72
2023/11/11 13:43:22;;;;;;;19.23;14.35;;;;;;;;;;4948251;29;20778;-72
2023/11/11 13:45:49;;;;;;;21.50;13.60;;;;;;;;;;4948923;29;20073;-72
2023/11/11 13:48:15;;;;;;;14.27;10.77;;;;;;;;;;4948291;28;20390;-73
2023/11/11 13:50:41;;;;;;;14.65;12.75;;;;;;;;;;4932825;29;20484;-73
2023/11/11 13:53:07;;;;;;;18.77;12.27;;;;;;;;;;4939233;29;20054;-73
2023/11/11 13:55:34;;;;;;;12.27;10.73;;;;;;;;;;4948563;29;20020;-74
2023/11/11 13:58:01;;;;;;;15.07;11.50;;;;;;;;;;4954070;29;20031;-74
2023/11/11 14:00:27;;;;;;;13.77;11.38;;;;;;;;;;4948312;29;20043;-74
2023/11/11 14:03:07;;;;;;;16.35;9.45;;;;;;;;;;4931696;29;20031;-73
2023/11/11 14:05:33;;;;;;;19.85;13.88;;;;;;;;;;4948912;29;20033;-73
2023/11/11 14:08:01;;;;;;;20.80;13.38;;;;;;;;;;4938802;29;20094;-74
2023/11/11 14:10:28;;;;;;;11.48;10.07;;;;;;;;;;4947960;29;20114;-74
2023/11/11 14:12:57;;;;;;;22.08;12.98;;;;;;;;;;4930465;29;20302;-74
2023/11/11 14:15:31;;;;;;;23.55;13.98;;;;;;;;;;4947968;29;20035;-74
2023/11/11 14:17:57;;;;;;;15.68;12.68;;;;;;;;;;4941997;29;20039;-72
2023/11/11 14:20:23;;;;;;;16.85;11.35;;;;;;;;;;4943059;29;20461;-74
2023/11/11 14:22:49;;;;;;;14.93;13.32;;;;;;;;;;4962775;28;20039;-73
2023/11/11 14:25:17;;;;;;;14.73;11.30;;;;;;;;;;4961069;29;20023;-74
2023/11/11 14:27:44;;;;;;;18.30;12.77;;;;;;;;;;4953691;29;20126;-74
2023/11/11 14:30:14;;;;;;;13.63;9.55;;;;;;;;;;4953597;29;20121;-74
2023/11/11 14:32:42;;;;;;;13.45;10.48;;;;;;;;;;4953290;29;20051;-72
2023/11/11 14:35:16;;;;;;;19.90;12.77;;;;;;;;;;4968243;28;20026;-71
2023/11/11 14:37:43;;;;;;;15.52;11.82;;;;;;;;;;4945284;29;20418;-73
2023/11/11 14:40:18;;;;;;;12.77;10.48;;;;;;;;;;4953257;29;20053;-73
2023/11/11 14:42:45;;;;;;;13.70;11.00;;;;;;;;;;4953200;29;20046;-72
2023/11/11 14:45:11;;;;;;;18.80;12.50;;;;;;;;;;4935465;29;20194;-74
2023/11/11 14:47:38;;;;;;;14.98;11.43;;;;;;;;;;4950305;29;20057;-74
2023/11/11 14:50:05;;;;;;;14.70;10.50;;;;;;;;;;4941662;29;20083;-73
2023/11/11 14:52:31;;;;;;;9.77;8.70;;;;;;;;;;4946610;28;20461;-73
2023/11/11 14:54:57;;;;;;;16.48;11.15;;;;;;;;;;4970700;28;20114;-73
2023/11/11 14:57:23;;;;;;;12.90;11.13;;;;;;;;;;4933761;29;21067;-74
2023/11/11 14:59:48;;;;;;;11.38;9.73;;;;;;;;;;4952421;29;20031;-72
2023/11/11 15:02:15;;;;;;;18.50;13.45;;;;;;;;;;4952839;29;20050;-74
2023/11/11 15:04:43;;;;;;;10.32;8.73;;;;;;;;;;4947246;29;20035;-73
2023/11/11 15:07:09;;;;;;;8.35;7.55;;;;;;;;;;4950949;29;20031;-72
2023/11/11 15:09:35;;;;;;;14.07;11.23;;;;;;;;;;4955275;29;20121;-73
2023/11/11 15:12:01;;;;;;;13.10;10.40;;;;;;;;;;4953004;29;20047;-73
2023/11/11 15:14:28;;;;;;;22.65;12.32;;;;;;;;;;4934924;29;20661;-73
2023/11/11 15:16:54;;;;;;;18.15;13.00;;;;;;;;;;4934691;29;20042;-72
2023/11/11 15:19:20;;;;;;;13.52;11.77;;;;;;;;;;4952579;28;20031;-73
2023/11/11 15:21:46;;;;;;;23.38;14.40;;;;;;;;;;4935108;28;20123;-73
2023/11/11 15:24:13;;;;;;;16.13;13.20;;;;;;;;;;4952415;28;20114;-73
2023/11/11 15:26:41;;;;;;;14.50;10.77;;;;;;;;;;4952624;28;20103;-74
2023/11/11 15:29:10;;;;;;;18.00;12.05;;;;;;;;;;4941401;29;20053;-73
2023/11/11 15:31:36;;;;;;;12.45;10.68;;;;;;;;;;4935308;29;20043;-77
2023/11/11 15:34:04;;;;;;;21.50;16.80;;;;;;;;;;4951696;29;20494;-75
2023/11/11 15:36:30;;;;;;;27.02;19.50;;;;;;;;;;4952706;28;20031;-72
2023/11/11 15:38:56;;;;;;;24.33;15.10;;;;;;;;;;4935611;29;20039;-73
2023/11/11 15:41:23;;;;;;;17.63;14.93;;;;;;;;;;4952387;29;20035;-73
2023/11/11 15:43:49;;;;;;;21.10;15.95;;;;;;;;;;4951958;29;20505;-73
2023/11/11 15:46:17;;;;;;;25.45;16.23;;;;;;;;;;4950861;29;20079;-71
2023/11/11 15:48:43;;;;;;;20.58;14.27;;;;;;;;;;4952071;29;20122;-72
2023/11/11 15:51:10;;;;;;;22.65;16.40;;;;;;;;;;4951764;29;20051;-71
2023/11/11 15:53:36;;;;;;;28.67;15.63;;;;;;;;;;4934788;29;20047;-71
2023/11/11 15:56:03;;;;;;;19.65;14.55;;;;;;;;;;4951981;29;20115;-72
2023/11/11 15:58:29;;;;;;;21.40;17.60;;;;;;;;;;4943832;29;20126;-71
2023/11/11 16:00:55;;;;;;;26.05;17.25;;;;;;;;;;4951954;29;20616;-72
2023/11/11 16:03:22;;;;;;;21.83;14.70;;;;;;;;;;4952139;29;20418;-71
2023/11/11 16:05:50;;;;;;;17.63;13.38;;;;;;;;;;4933439;29;20417;-71
2023/11/11 16:08:16;;;;;;;17.23;14.85;;;;;;;;;;4951387;29;20133;-72
2023/11/11 16:10:42;;;;;;;20.33;15.27;;;;;;;;;;4933768;29;20146;-72
2023/11/11 16:13:08;;;;;;;19.55;15.98;;;;;;;;;;4946752;29;20557;-73
2023/11/11 16:15:34;;;;;;;23.08;15.82;;;;;;;;;;4935477;29;20031;-72
2023/11/11 16:18:00;;;;;;;21.40;16.60;;;;;;;;;;4943927;29;20397;-73
2023/11/11 16:20:27;;;;;;;12.75;11.52;;;;;;;;;;4933207;29;20027;-75
2023/11/11 16:22:53;;;;;;;21.00;15.45;;;;;;;;;;4941828;29;20688;-75
2023/11/11 16:25:19;;;;;;;25.33;18.40;;;;;;;;;;4941378;29;20023;-75
2023/11/11 16:27:45;;;;;;;14.15;12.32;;;;;;;;;;4943549;28;20053;-74
2023/11/11 16:30:12;;;;;;;20.55;14.25;;;;;;;;;;4926738;29;20024;-75
2023/11/11 16:32:38;;;;;;;18.27;14.38;;;;;;;;;;4949089;29;20552;-75
2023/11/11 16:35:08;;;;;;;16.77;14.95;;;;;;;;;;4952116;29;20325;-77
2023/11/11 16:37:35;;;;;;;17.63;14.13;;;;;;;;;;4952976;29;20042;-74
2023/11/11 16:40:04;;;;;;;22.77;14.52;;;;;;;;;;4950727;29;20027;-77
2023/11/11 16:42:29;;;;;;;25.10;18.15;;;;;;;;;;4949962;29;20498;-77
2023/11/11 16:44:55;;;;;;;18.63;16.63;;;;;;;;;;4951503;29;20069;-76
2023/11/11 16:47:22;;;;;;;18.30;14.65;;;;;;;;;;4938807;29;20066;-81
2023/11/11 16:49:48;;;;;;;28.98;22.23;;;;;;;;;;4957638;29;20031;-78
2023/11/11 16:52:16;;;;;;;37.58;22.90;;;;;;;;;;4959347;29;20486;-75
2023/11/11 16:54:43;;;;;;;23.50;19.33;;;;;;;;;;4945236;29;20035;-76
2023/11/11 16:57:10;;;;;;;22.67;19.45;;;;;;;;;;4944431;29;20031;-77
2023/11/11 16:59:36;;;;;;;25.33;17.02;;;;;;;;;;4926617;29;20525;-78
2023/11/11 17:02:02;;;;;;;17.77;14.50;;;;;;;;;;4944228;29;20063;-80
2023/11/11 17:04:28;;;;;;;26.88;19.38;;;;;;;;;;4946536;29;20110;-77
2023/11/11 17:06:54;;;;;;;20.77;14.85;;;;;;;;;;4933419;29;20031;-77
2023/11/11 17:09:22;;;;;;;18.80;15.68;;;;;;;;;;4944933;29;20066;-77
2023/11/11 17:11:48;;;;;;;19.17;15.77;;;;;;;;;;4955279;29;20453;-78
2023/11/11 17:14:14;;;;;;;30.92;21.90;;;;;;;;;;4937538;29;20082;-77
2023/11/11 17:16:40;;;;;;;19.05;14.82;;;;;;;;;;4938506;29;20038;-75
2023/11/11 17:19:06;;;;;;;26.27;19.48;;;;;;;;;;4952331;29;20074;-75
2023/11/11 17:21:33;;;;;;;20.38;17.48;;;;;;;;;;4952570;29;20024;-75
2023/11/11 17:23:59;;;;;;;21.70;16.08;;;;;;;;;;4950112;29;20050;-74
2023/11/11 17:26:25;;;;;;;21.20;17.58;;;;;;;;;;4953961;29;20162;-77
2023/11/11 17:28:52;;;;;;;16.65;14.95;;;;;;;;;;4923773;29;20047;-75
2023/11/11 17:31:18;;;;;;;21.30;17.00;;;;;;;;;;4947191;29;20406;-78
2023/11/11 17:33:44;;;;;;;22.17;18.05;;;;;;;;;;4951088;29;20684;-76
2023/11/11 17:36:10;;;;;;;22.33;16.83;;;;;;;;;;4935761;29;20161;-75
2023/11/11 17:38:38;;;;;;;15.77;13.82;;;;;;;;;;4930050;29;20506;-76
2023/11/11 17:41:08;;;;;;;16.02;13.32;;;;;;;;;;4948773;29;20031;-75
2023/11/11 17:43:35;;;;;;;18.40;15.53;;;;;;;;;;4948754;29;20025;-77
2023/11/11 17:46:01;;;;;;;13.18;11.80;;;;;;;;;;4935364;28;20043;-77
2023/11/11 17:48:27;;;;;;;15.40;13.55;;;;;;;;;;4954936;28;20094;-76
2023/11/11 17:50:54;;;;;;;14.23;12.38;;;;;;;;;;4933393;29;20123;-77
2023/11/11 17:53:20;;;;;;;14.20;12.68;;;;;;;;;;4914400;29;20433;-75
2023/11/11 17:55:46;;;;;;;16.58;14.02;;;;;;;;;;4911161;29;20490;-75
2023/11/11 17:58:13;;;;;;;17.48;14.38;;;;;;;;;;4911803;29;20042;-76
2023/11/11 18:00:39;;;;;;;13.90;12.55;;;;;;;;;;4927611;29;20084;-75
2023/11/11 18:03:06;;;;;;;16.25;13.25;;;;;;;;;;4909536;29;20051;-74
2023/11/11 18:05:34;;;;;;;15.32;12.45;;;;;;;;;;4906338;29;20040;-77
2023/11/11 18:08:04;;;;;;;14.48;10.52;;;;;;;;;;4905040;29;20047;-77
2023/11/11 18:10:31;;;;;;;16.65;13.63;;;;;;;;;;4909223;29;20032;-78
2023/11/11 18:12:57;;;;;;;11.65;9.15;;;;;;;;;;4913240;29;20040;-79
2023/11/11 18:15:24;;;;;;;11.48;9.13;;;;;;;;;;4893527;29;20036;-79
2023/11/11 18:17:50;;;;;;;17.80;12.80;;;;;;;;;;4912612;29;20063;-79
2023/11/11 18:20:17;;;;;;;13.32;11.98;;;;;;;;;;4889480;29;20563;-71
2023/11/11 18:22:43;;;;;;;12.45;11.07;;;;;;;;;;4901928;29;20127;-72
2023/11/11 18:25:10;;;;;;;15.18;10.38;;;;;;;;;;4904362;29;20071;-72
2023/11/11 18:27:37;;;;;;;13.02;11.35;;;;;;;;;;4920640;29;20039;-72
2023/11/11 18:30:05;;;;;;;10.40;7.97;;;;;;;;;;4900670;29;20029;-73
2023/11/11 18:32:32;;;;;;;11.23;10.07;;;;;;;;;;4907717;29;20052;-75
2023/11/11 18:35:00;;;;;;;11.60;10.45;;;;;;;;;;4906089;29;20127;-73
2023/11/11 18:37:26;;;;;;;9.85;9.05;;;;;;;;;;4914512;29;20043;-71
2023/11/11 18:39:53;;;;;;;13.15;11.80;;;;;;;;;;4914959;29;20119;-74
2023/11/11 18:42:19;;;;;;;18.85;11.75;;;;;;;;;;4913538;29;20047;-73
2023/11/11 18:44:45;;;;;;;14.13;10.20;;;;;;;;;;4906221;29;20032;-73
2023/11/11 18:47:11;;;;;;;17.38;10.82;;;;;;;;;;4904516;29;20033;-73
2023/11/11 18:49:37;;;;;;;12.07;10.63;;;;;;;;;;4905739;29;20561;-72
2023/11/11 18:52:04;;;;;;;13.60;12.30;;;;;;;;;;4942540;29;20121;-73
2023/11/11 18:54:30;;;;;;;11.85;10.60;;;;;;;;;;4932540;29;20039;-72
2023/11/11 18:56:56;;;;;;;10.65;8.82;;;;;;;;;;4933786;29;20036;-73
2023/11/11 18:59:22;;;;;;;10.45;9.18;;;;;;;;;;4947539;29;20614;-74
2023/11/11 19:01:49;;;;;;;9.35;7.90;;;;;;;;;;4952009;29;20497;-73
2023/11/11 19:04:15;;;;;;;11.43;10.30;;;;;;;;;;4951375;29;20532;-72
2023/11/11 19:06:41;;;;;;;10.82;8.80;;;;;;;;;;4951934;29;20133;-72
2023/11/11 19:09:08;;;;;;;12.55;8.43;;;;;;;;;;4952389;28;20035;-73
2023/11/11 19:11:36;;;;;;;10.55;8.82;;;;;;;;;;4935764;29;20074;-73
2023/11/11 19:14:02;;;;;;;8.75;7.93;;;;;;;;;;4942028;29;20097;-72
2023/11/11 19:16:28;;;;;;;11.38;9.13;;;;;;;;;;4934435;29;20094;-72
2023/11/11 19:18:54;;;;;;;7.28;6.65;;;;;;;;;;4933100;29;20123;-73
2023/11/11 19:21:22;;;;;;;7.35;6.75;;;;;;;;;;4938493;29;20126;-73
2023/11/11 19:23:48;;;;;;;9.90;8.93;;;;;;;;;;4933729;29;20035;-71
2023/11/11 19:26:20;;;;;;;8.88;8.15;;;;;;;;;;4955021;29;20038;-72
2023/11/11 19:28:46;;;;;;;9.95;9.10;;;;;;;;;;4955442;29;20524;-73
2023/11/11 19:31:12;;;;;;;10.95;10.00;;;;;;;;;;4953342;29;20469;-72
2023/11/11 19:33:38;;;;;;;12.90;9.82;;;;;;;;;;4953578;29;20666;-74
2023/11/11 19:36:05;;;;;;;10.68;8.40;;;;;;;;;;4934710;29;20035;-73
2023/11/11 19:38:31;;;;;;;10.82;9.85;;;;;;;;;;4953463;29;20118;-73
2023/11/11 19:40:57;;;;;;;7.75;7.05;;;;;;;;;;4937034;29;20727;-73
2023/11/11 19:43:23;;;;;;;7.13;6.63;;;;;;;;;;4963808;29;20035;-74
2023/11/11 19:45:51;;;;;;;10.63;9.60;;;;;;;;;;4967942;29;20054;-74
2023/11/11 19:48:17;;;;;;;9.88;8.98;;;;;;;;;;4950997;29;20043;-73
2023/11/11 19:50:43;;;;;;;8.40;7.65;;;;;;;;;;4932742;29;20075;-73
2023/11/11 19:53:10;;;;;;;8.77;7.95;;;;;;;;;;4947332;29;20142;-72
2023/11/11 19:55:36;;;;;;;7.82;7.10;;;;;;;;;;4951969;29;20506;-72
2023/11/11 19:58:02;;;;;;;9.88;8.88;;;;;;;;;;4951529;29;20063;-73
2023/11/11 20:00:28;;;;;;;9.02;8.13;;;;;;;;;;4951888;29;20045;-72
2023/11/11 20:02:54;;;;;;;9.93;8.95;;;;;;;;;;4951661;29;20042;-72
2023/11/11 20:05:20;;;;;;;8.73;7.93;;;;;;;;;;4951780;29;20037;-72
2023/11/11 20:07:47;;;;;;;14.70;9.40;;;;;;;;;;4934304;29;20117;-73